createdAt,value
2023-05-10T00:00:28.606Z,81.85
2023-05-10T00:02:58.555Z,82.25
2023-05-10T00:05:28.494Z,82.54
2023-05-10T00:07:58.348Z,81.92
2023-05-10T00:10:28.203Z,82.21
2023-05-10T00:12:58.059Z,82.09
2023-05-10T00:15:31.661Z,83.30
2023-05-10T00:18:01.975Z,83.57
2023-05-10T00:20:31.878Z,83.96
2023-05-10T00:23:01.835Z,83.38
2023-05-10T00:25:31.684Z,83.78
2023-05-10T00:28:02.561Z,84.21
2023-05-10T00:30:35.028Z,84.20
2023-05-10T00:33:05.419Z,85.08
2023-05-10T00:35:35.346Z,84.68
2023-05-10T00:38:05.142Z,84.66
2023-05-10T00:40:34.975Z,84.88
2023-05-10T00:43:08.134Z,85.10
2023-05-10T00:45:43.745Z,85.05
2023-05-10T00:48:13.673Z,85.28
2023-05-10T00:50:43.930Z,86.65
2023-05-10T00:53:14.049Z,87.27
2023-05-10T00:55:43.963Z,87.30
2023-05-10T00:58:14.128Z,87.30
2023-05-10T01:00:47.493Z,87.12
2023-05-10T01:03:18.239Z,87.05
2023-05-10T01:05:48.154Z,86.39
2023-05-10T01:08:18.305Z,87.48
2023-05-10T01:10:50.314Z,87.74
2023-05-10T01:13:27.236Z,89.08
2023-05-10T01:16:01.117Z,88.71
2023-05-10T01:18:32.565Z,89.29
2023-05-10T01:21:15.498Z,89.19
2023-05-10T01:24:33.526Z,89.23
2023-05-10T01:27:21.376Z,90.34
2023-05-10T01:30:19.125Z,89.16
2023-05-10T01:32:59.071Z,90.13
2023-05-10T01:35:41.414Z,90.00
2023-05-10T01:38:21.251Z,89.89
2023-05-10T01:41:01.027Z,89.89
2023-05-10T01:43:36.776Z,89.42
2023-05-10T01:46:12.201Z,89.13
2023-05-10T01:48:51.775Z,89.39
2023-05-10T01:51:26.840Z,89.32
2023-05-10T01:54:04.326Z,89.19
2023-05-10T01:56:37.120Z,88.76
2023-05-10T01:59:12.694Z,88.93
2023-05-10T02:01:43.875Z,88.85
2023-05-10T02:04:20.923Z,88.78
2023-05-10T02:06:51.780Z,89.49
2023-05-10T02:09:24.595Z,88.14
2023-05-10T02:11:54.410Z,88.33
2023-05-10T02:14:26.050Z,88.70
2023-05-10T02:16:59.673Z,89.26
2023-05-10T02:19:35.751Z,90.06
2023-05-10T02:22:07.261Z,90.22
2023-05-10T02:24:38.538Z,90.61
2023-05-10T02:27:08.708Z,89.38
2023-05-10T02:29:40.595Z,88.82
2023-05-10T02:32:10.994Z,88.26
2023-05-10T02:34:45.941Z,87.19
2023-05-10T02:37:19.574Z,87.35
2023-05-10T02:39:50.629Z,88.62
2023-05-10T02:42:22.661Z,88.85
2023-05-10T02:44:56.899Z,88.70
2023-05-10T02:47:26.971Z,88.43
2023-05-10T02:50:00.653Z,89.62
2023-05-10T02:52:34.854Z,89.65
2023-05-10T02:55:08.917Z,90.35
2023-05-10T02:57:45.251Z,90.27
2023-05-10T03:00:16.172Z,90.36
2023-05-10T03:02:46.287Z,90.98
2023-05-10T03:05:19.044Z,90.69
2023-05-10T03:07:50.156Z,89.66
2023-05-10T03:10:21.667Z,90.33
2023-05-10T03:13:04.039Z,89.74
2023-05-10T03:15:44.470Z,89.38
2023-05-10T03:18:19.176Z,90.08
2023-05-10T03:20:53.680Z,90.67
2023-05-10T03:23:29.407Z,91.47
2023-05-10T03:25:59.542Z,91.74
2023-05-10T03:28:30.856Z,91.00
2023-05-10T03:31:02.783Z,90.80
2023-05-10T03:33:33.856Z,90.86
2023-05-10T03:36:06.787Z,91.37
2023-05-10T03:38:36.600Z,92.55
2023-05-10T03:41:06.471Z,92.39
2023-05-10T03:43:36.532Z,91.90
2023-05-10T03:46:06.485Z,90.77
2023-05-10T03:48:36.963Z,91.47
2023-05-10T03:51:09.551Z,91.64
2023-05-10T03:53:39.482Z,92.25
2023-05-10T03:56:09.680Z,93.02
2023-05-10T03:58:39.748Z,95.55
2023-05-10T04:01:09.628Z,98.46
2023-05-10T04:03:39.521Z,99.17
2023-05-10T04:06:12.988Z,98.12
2023-05-10T04:08:42.928Z,99.23
2023-05-10T04:11:14.894Z,99.94
2023-05-10T04:13:44.768Z,100.00
2023-05-10T04:16:14.689Z,100.00
2023-05-10T04:18:44.548Z,100.00
2023-05-10T04:21:19.910Z,100.00
2023-05-10T04:23:49.878Z,100.00
2023-05-10T04:26:19.730Z,100.00
2023-05-10T04:28:49.644Z,100.00
2023-05-10T04:31:19.546Z,100.00
2023-05-10T04:33:49.504Z,100.00
2023-05-10T04:36:22.109Z,100.00
2023-05-10T04:38:51.961Z,100.00
2023-05-10T04:41:21.824Z,100.00
2023-05-10T04:43:52.333Z,100.00
2023-05-10T04:46:22.284Z,100.00
2023-05-10T04:48:52.342Z,100.00
2023-05-10T04:51:24.811Z,100.00
2023-05-10T04:54:05.159Z,100.00
2023-05-10T04:56:36.254Z,100.00
2023-05-10T04:59:06.159Z,100.00
2023-05-10T05:01:36.385Z,100.00
2023-05-10T05:04:06.591Z,100.00
2023-05-10T05:06:39.172Z,100.00
2023-05-10T05:09:09.061Z,100.00
2023-05-10T05:11:39.414Z,100.00
2023-05-10T05:14:09.226Z,100.00
2023-05-10T05:16:39.406Z,100.00
2023-05-10T05:19:09.322Z,100.00
2023-05-10T05:21:41.785Z,100.00
2023-05-10T05:24:13.551Z,100.00
2023-05-10T05:26:43.368Z,100.00
2023-05-10T05:29:13.220Z,100.00
2023-05-10T05:31:43.236Z,100.00
2023-05-10T05:34:13.147Z,100.00
2023-05-10T05:36:45.619Z,100.00
2023-05-10T05:39:15.549Z,100.00
2023-05-10T05:41:45.566Z,100.00
2023-05-10T05:44:15.408Z,100.00
2023-05-10T05:46:45.292Z,100.00
2023-05-10T05:49:15.136Z,100.00
2023-05-10T05:51:47.681Z,100.00
2023-05-10T05:54:17.522Z,100.00
2023-05-10T05:56:47.545Z,100.00
2023-05-10T05:59:17.372Z,100.00
2023-05-10T06:01:47.242Z,100.00
2023-05-10T06:04:17.300Z,100.00
2023-05-10T06:06:49.836Z,100.00
2023-05-10T06:09:19.748Z,100.00
2023-05-10T06:11:49.643Z,100.00
2023-05-10T06:14:19.531Z,100.00
2023-05-10T06:16:49.495Z,100.00
2023-05-10T06:19:19.392Z,100.00
2023-05-10T06:21:53.752Z,100.00
2023-05-10T06:24:23.842Z,100.00
2023-05-10T06:26:53.707Z,100.00
2023-05-10T06:29:23.533Z,100.00
2023-05-10T06:31:53.371Z,100.00
2023-05-10T06:34:23.318Z,100.00
2023-05-10T06:36:55.880Z,100.00
2023-05-10T06:39:25.727Z,100.00
2023-05-10T06:41:55.608Z,100.00
2023-05-10T06:44:25.471Z,100.00
2023-05-10T06:46:56.979Z,100.00
2023-05-10T06:49:26.884Z,100.00
2023-05-10T06:51:59.475Z,100.00
2023-05-10T06:54:29.378Z,100.00
2023-05-10T06:56:59.837Z,100.00
2023-05-10T06:59:30.624Z,100.00
2023-05-10T07:02:00.586Z,100.00
2023-05-10T07:04:30.583Z,100.00
2023-05-10T07:07:03.019Z,100.00
2023-05-10T07:09:33.421Z,100.00
2023-05-10T07:12:07.218Z,100.00
2023-05-10T07:14:37.979Z,100.00
2023-05-10T07:17:08.057Z,100.00
2023-05-10T07:19:37.975Z,100.00
2023-05-10T07:22:10.524Z,100.00
2023-05-10T07:24:40.363Z,100.00
2023-05-10T07:27:10.228Z,100.00
2023-05-10T07:29:40.138Z,100.00
2023-05-10T07:32:10.209Z,100.00
2023-05-10T07:34:40.096Z,100.00
2023-05-10T07:37:12.672Z,100.00
2023-05-10T07:39:42.607Z,100.00
2023-05-10T07:42:12.432Z,100.00
2023-05-10T07:44:42.970Z,100.00
2023-05-10T07:47:12.879Z,100.00
2023-05-10T07:49:42.674Z,100.00
2023-05-10T07:52:15.162Z,100.00
2023-05-10T07:54:45.747Z,100.00
2023-05-10T07:57:15.801Z,100.00
2023-05-10T07:59:45.682Z,100.00
2023-05-10T08:02:15.509Z,100.00
2023-05-10T08:04:45.624Z,100.00
2023-05-10T08:07:18.115Z,100.00
2023-05-10T08:09:47.977Z,100.00
2023-05-10T08:12:17.873Z,100.00
2023-05-10T08:14:47.733Z,100.00
2023-05-10T08:17:19.679Z,100.00
2023-05-10T08:19:49.964Z,100.00
2023-05-10T08:22:22.605Z,100.00
2023-05-10T08:24:52.436Z,100.00
2023-05-10T08:27:22.386Z,100.00
2023-05-10T08:29:52.264Z,100.00
2023-05-10T08:32:22.349Z,100.00
2023-05-10T08:34:52.186Z,99.11
2023-05-10T08:37:24.584Z,98.54
2023-05-10T08:39:54.424Z,98.48
2023-05-10T08:42:26.580Z,98.25
2023-05-10T08:44:57.865Z,97.81
2023-05-10T08:47:28.999Z,97.15
2023-05-10T08:49:59.290Z,97.37
2023-05-10T08:52:33.748Z,96.91
2023-05-10T08:55:04.291Z,96.44
2023-05-10T08:57:34.225Z,95.38
2023-05-10T09:00:04.988Z,94.80
2023-05-10T09:02:35.404Z,93.82
2023-05-10T09:05:05.947Z,94.31
2023-05-10T09:07:38.963Z,95.89
2023-05-10T09:10:10.478Z,96.18
2023-05-10T09:12:40.846Z,95.37
2023-05-10T09:15:13.102Z,96.50
2023-05-10T09:17:44.447Z,95.50
2023-05-10T09:20:14.475Z,95.72
2023-05-10T09:22:47.108Z,96.32
2023-05-10T09:25:18.694Z,97.67
2023-05-10T09:27:50.084Z,97.34
2023-05-10T09:30:21.734Z,95.30
2023-05-10T09:32:51.860Z,94.91
2023-05-10T09:35:25.871Z,95.20
2023-05-10T09:38:01.573Z,94.77
2023-05-10T09:40:33.120Z,93.97
2023-05-10T09:43:07.076Z,94.69
2023-05-10T09:45:39.316Z,94.43
2023-05-10T09:48:10.078Z,93.63
2023-05-10T09:50:40.034Z,93.55
2023-05-10T09:53:12.590Z,93.43
2023-05-10T09:55:45.903Z,93.67
2023-05-10T09:58:16.592Z,93.94
2023-05-10T10:00:49.055Z,94.60
2023-05-10T10:03:20.830Z,94.15
2023-05-10T10:05:52.461Z,93.41
2023-05-10T10:08:24.962Z,93.02
2023-05-10T10:10:54.878Z,94.52
2023-05-10T10:13:24.979Z,92.92
2023-05-10T10:15:58.239Z,91.54
2023-05-10T10:18:29.844Z,91.34
2023-05-10T10:21:00.405Z,89.16
2023-05-10T10:23:33.100Z,88.60
2023-05-10T10:26:03.737Z,89.34
2023-05-10T10:28:44.193Z,88.91
2023-05-10T10:31:27.700Z,89.19
2023-05-10T10:34:05.927Z,90.55
2023-05-10T10:36:38.158Z,87.04
2023-05-10T10:39:13.659Z,87.19
2023-05-10T10:41:52.647Z,87.74
2023-05-10T10:44:39.313Z,88.20
2023-05-10T10:47:13.017Z,87.82
2023-05-10T10:49:47.918Z,86.39
2023-05-10T10:52:19.535Z,86.58
2023-05-10T10:54:57.316Z,83.44
2023-05-10T10:57:29.656Z,85.60
2023-05-10T11:00:23.823Z,87.36
2023-05-10T11:02:55.640Z,86.52
2023-05-10T11:05:44.717Z,87.33
2023-05-10T11:08:24.044Z,87.57
2023-05-10T11:11:08.323Z,86.69
2023-05-10T11:13:42.214Z,84.70
2023-05-10T11:16:20.283Z,85.12
2023-05-10T11:18:57.636Z,83.52
2023-05-10T11:21:27.550Z,84.20
2023-05-10T11:23:59.821Z,83.51
2023-05-10T11:26:35.527Z,79.79
2023-05-10T11:29:06.309Z,81.62
2023-05-10T11:31:36.398Z,80.64
2023-05-10T11:34:06.348Z,78.21
2023-05-10T11:36:38.472Z,78.08
2023-05-10T11:39:09.010Z,74.36
2023-05-10T11:41:42.990Z,73.61
2023-05-10T11:44:13.357Z,73.55
2023-05-10T11:46:43.356Z,75.13
2023-05-10T11:49:14.546Z,73.97
2023-05-10T11:51:44.798Z,75.60
2023-05-10T11:54:15.471Z,77.13
2023-05-10T11:56:48.291Z,73.90
2023-05-10T11:59:18.668Z,74.76
2023-05-10T12:01:48.726Z,76.59
2023-05-10T12:04:18.850Z,77.14
2023-05-10T12:06:49.075Z,77.43
2023-05-10T12:09:22.979Z,77.38
2023-05-10T12:12:06.100Z,75.12
2023-05-10T12:14:38.605Z,71.40
2023-05-10T12:17:08.584Z,71.36
2023-05-10T12:19:42.208Z,72.13
2023-05-10T12:22:12.119Z,71.05
2023-05-10T12:24:42.030Z,68.90
2023-05-10T12:27:14.560Z,69.17
2023-05-10T12:29:47.107Z,67.53
2023-05-10T12:32:17.036Z,66.99
2023-05-10T12:34:46.990Z,66.98
2023-05-10T12:37:16.947Z,66.49
2023-05-10T12:39:48.406Z,65.21
2023-05-10T12:42:20.962Z,67.10
2023-05-10T12:44:51.000Z,65.93
2023-05-10T12:47:20.910Z,65.81
2023-05-10T12:49:50.788Z,66.01
2023-05-10T12:52:20.840Z,64.91
2023-05-10T12:54:50.888Z,64.90
2023-05-10T12:57:24.398Z,65.31
2023-05-10T12:59:54.498Z,65.40
2023-05-10T13:02:25.066Z,62.71
2023-05-10T13:04:55.199Z,63.39
2023-05-10T13:07:25.085Z,62.57
2023-05-10T13:09:54.904Z,63.70
2023-05-10T13:12:27.453Z,61.23
2023-05-10T13:14:57.269Z,63.63
2023-05-10T13:17:29.785Z,62.57
2023-05-10T13:20:00.229Z,62.62
2023-05-10T13:22:39.747Z,62.47
2023-05-10T13:25:11.237Z,64.96
2023-05-10T13:27:44.383Z,64.55
2023-05-10T13:30:15.301Z,65.88
2023-05-10T13:32:45.408Z,65.07
2023-05-10T13:35:15.346Z,65.47
2023-05-10T13:37:45.221Z,66.55
2023-05-10T13:40:16.858Z,68.12
2023-05-10T13:42:52.462Z,70.26
2023-05-10T13:45:22.371Z,72.61
2023-05-10T13:47:53.311Z,72.72
2023-05-10T13:50:23.633Z,73.04
2023-05-10T13:52:53.607Z,73.29
2023-05-10T13:55:23.898Z,74.83
2023-05-10T13:57:56.484Z,75.44
2023-05-10T14:00:26.499Z,76.28
2023-05-10T14:02:56.690Z,75.39
2023-05-10T14:05:27.331Z,76.54
2023-05-10T14:07:57.648Z,75.88
2023-05-10T14:10:27.889Z,75.79
2023-05-10T14:13:00.378Z,75.72
2023-05-10T14:15:30.288Z,74.90
2023-05-10T14:18:00.178Z,74.91
2023-05-10T14:20:30.282Z,73.98
2023-05-10T14:23:00.149Z,73.79
2023-05-10T14:25:29.999Z,73.30
2023-05-10T14:28:02.674Z,72.32
2023-05-10T14:30:32.576Z,72.46
2023-05-10T14:33:02.468Z,72.68
2023-05-10T14:35:33.115Z,73.83
2023-05-10T14:38:03.696Z,72.93
2023-05-10T14:40:33.756Z,71.12
2023-05-10T14:43:06.701Z,71.33
2023-05-10T14:45:37.313Z,71.73
2023-05-10T14:48:07.541Z,71.88
2023-05-10T14:50:37.705Z,72.00
2023-05-10T14:53:07.650Z,71.99
2023-05-10T14:55:38.094Z,71.31
2023-05-10T14:58:10.550Z,70.20
2023-05-10T15:00:40.377Z,67.85
2023-05-10T15:03:10.870Z,68.53
2023-05-10T15:05:41.693Z,68.18
2023-05-10T15:08:11.767Z,69.32
2023-05-10T15:10:41.617Z,69.47
2023-05-10T15:13:14.051Z,69.49
2023-05-10T15:15:43.955Z,69.95
2023-05-10T15:18:13.975Z,70.16
2023-05-10T15:20:43.794Z,70.04
2023-05-10T15:23:13.684Z,70.58
2023-05-10T15:25:43.613Z,72.97
2023-05-10T15:28:16.124Z,72.00
2023-05-10T15:30:45.970Z,71.20
2023-05-10T15:33:15.802Z,71.06
2023-05-10T15:35:45.729Z,71.19
2023-05-10T15:38:16.107Z,70.65
2023-05-10T15:40:45.931Z,70.87
2023-05-10T15:43:18.623Z,71.92
2023-05-10T15:45:49.077Z,73.58
2023-05-10T15:48:19.080Z,73.88
2023-05-10T15:50:49.078Z,73.74
2023-05-10T15:53:18.987Z,74.69
2023-05-10T15:55:49.261Z,74.35
2023-05-10T15:58:21.848Z,73.64
2023-05-10T16:00:51.811Z,76.31
2023-05-10T16:03:21.701Z,75.91
2023-05-10T16:05:51.645Z,74.89
2023-05-10T16:08:21.504Z,74.46
2023-05-10T16:10:54.364Z,74.16
2023-05-10T16:13:26.929Z,73.74
2023-05-10T16:15:57.757Z,72.89
2023-05-10T16:18:27.745Z,73.72
2023-05-10T16:20:59.462Z,73.71
2023-05-10T16:23:29.409Z,74.09
2023-05-10T16:25:59.296Z,75.83
2023-05-10T16:28:32.563Z,72.45
2023-05-10T16:31:02.459Z,70.89
2023-05-10T16:33:32.459Z,71.25
2023-05-10T16:36:02.354Z,70.85
2023-05-10T16:38:32.199Z,71.09
2023-05-10T16:41:05.196Z,70.86
2023-05-10T16:43:38.027Z,69.80
2023-05-10T16:46:13.261Z,71.84
2023-05-10T16:48:43.113Z,72.99
2023-05-10T16:51:13.356Z,72.87
2023-05-10T16:53:43.221Z,74.09
2023-05-10T16:56:13.122Z,78.05
2023-05-10T16:58:45.785Z,81.11
2023-05-10T17:01:15.684Z,82.11
2023-05-10T17:03:46.991Z,84.43
2023-05-10T17:06:17.019Z,86.01
2023-05-10T17:08:47.748Z,90.83
2023-05-10T17:11:20.082Z,92.01
2023-05-10T17:13:52.871Z,92.38
2023-05-10T17:16:23.427Z,93.84
2023-05-10T17:18:53.461Z,93.49
2023-05-10T17:21:23.382Z,94.80
2023-05-10T17:23:53.290Z,95.26
2023-05-10T17:26:23.153Z,95.46
2023-05-10T17:28:55.914Z,96.33
2023-05-10T17:31:25.973Z,97.03
2023-05-10T17:33:55.824Z,97.72
2023-05-10T17:36:25.654Z,96.93
2023-05-10T17:38:55.507Z,96.76
2023-05-10T17:41:25.328Z,96.40
2023-05-10T17:43:58.084Z,96.54
2023-05-10T17:46:28.047Z,97.29
2023-05-10T17:48:58.147Z,99.36
2023-05-10T17:51:29.089Z,98.55
2023-05-10T17:53:59.108Z,99.48
2023-05-10T17:56:29.049Z,99.79
2023-05-10T17:59:01.492Z,99.80
2023-05-10T18:01:31.341Z,100.00
2023-05-10T18:04:01.187Z,100.00
2023-05-10T18:06:31.128Z,100.00
2023-05-10T18:09:01.025Z,100.00
2023-05-10T18:11:30.964Z,100.00
2023-05-10T18:14:03.426Z,100.00
2023-05-10T18:16:33.635Z,100.00
2023-05-10T18:19:03.928Z,100.00
2023-05-10T18:21:34.419Z,98.60
2023-05-10T18:24:04.380Z,98.36
2023-05-10T18:26:34.428Z,97.35
2023-05-10T18:29:06.939Z,96.02
2023-05-10T18:31:36.873Z,95.71
2023-05-10T18:34:07.380Z,97.76
2023-05-10T18:36:37.254Z,98.97
2023-05-10T18:39:07.269Z,98.72
2023-05-10T18:41:37.258Z,97.90
2023-05-10T18:44:09.822Z,97.39
2023-05-10T18:46:40.271Z,98.62
2023-05-10T18:49:10.331Z,98.12
2023-05-10T18:51:40.334Z,98.53
2023-05-10T18:54:10.188Z,98.21
2023-05-10T18:56:44.173Z,98.32
2023-05-10T18:59:16.940Z,97.06
2023-05-10T19:01:47.208Z,97.38
2023-05-10T19:04:18.220Z,98.41
2023-05-10T19:06:48.306Z,100.00
2023-05-10T19:09:20.350Z,100.00
2023-05-10T19:11:50.332Z,100.00
2023-05-10T19:14:23.205Z,100.00
2023-05-10T19:16:54.551Z,99.92
2023-05-10T19:19:24.773Z,100.00
2023-05-10T19:21:54.874Z,100.00
2023-05-10T19:24:26.014Z,100.00
2023-05-10T19:26:56.537Z,100.00
2023-05-10T19:29:29.471Z,100.00
2023-05-10T19:32:00.974Z,100.00
2023-05-10T19:34:31.191Z,100.00
2023-05-10T19:37:01.278Z,100.00
2023-05-10T19:39:32.807Z,100.00
2023-05-10T19:42:02.802Z,99.73
2023-05-10T19:44:35.556Z,98.68
2023-05-10T19:47:05.549Z,98.75
2023-05-10T19:49:36.426Z,98.61
2023-05-10T19:52:08.027Z,100.00
2023-05-10T19:54:38.316Z,99.96
2023-05-10T19:57:08.313Z,100.00
2023-05-10T19:59:40.869Z,100.00
2023-05-10T20:02:11.042Z,99.98
2023-05-10T20:04:40.966Z,100.00
2023-05-10T20:07:12.607Z,99.91
2023-05-10T20:09:42.802Z,100.00
2023-05-10T20:12:12.858Z,100.00
2023-05-10T20:14:45.342Z,100.00
2023-05-10T20:17:15.660Z,100.00
2023-05-10T20:19:45.582Z,100.00
2023-05-10T20:22:15.523Z,100.00
2023-05-10T20:24:45.410Z,100.00
2023-05-10T20:27:15.368Z,100.00
2023-05-10T20:29:48.060Z,100.00
2023-05-10T20:32:18.129Z,99.51
2023-05-10T20:34:48.149Z,99.45
2023-05-10T20:37:18.082Z,99.82
2023-05-10T20:39:50.289Z,99.79
2023-05-10T20:42:20.393Z,99.89
2023-05-10T20:44:53.304Z,99.17
2023-05-10T20:47:23.581Z,99.49
2023-05-10T20:49:53.790Z,99.24
2023-05-10T20:52:24.587Z,99.13
2023-05-10T20:54:54.677Z,98.86
2023-05-10T20:57:25.085Z,98.85
2023-05-10T20:59:57.818Z,99.60
2023-05-10T21:02:27.830Z,99.76
2023-05-10T21:04:58.199Z,100.00
2023-05-10T21:07:28.245Z,100.00
2023-05-10T21:09:58.123Z,100.00
2023-05-10T21:12:28.129Z,100.00
2023-05-10T21:15:00.721Z,100.00
2023-05-10T21:17:30.768Z,100.00
2023-05-10T21:20:00.668Z,100.00
2023-05-10T21:22:30.626Z,100.00
2023-05-10T21:25:00.529Z,100.00
2023-05-10T21:27:30.386Z,100.00
2023-05-10T21:30:03.246Z,100.00
2023-05-10T21:32:33.151Z,100.00
2023-05-10T21:35:03.047Z,100.00
2023-05-10T21:37:32.940Z,100.00
2023-05-10T21:40:04.837Z,100.00
2023-05-10T21:42:34.796Z,100.00
2023-05-10T21:45:08.040Z,99.63
2023-05-10T21:47:37.986Z,99.52
2023-05-10T21:50:10.228Z,99.50
2023-05-10T21:52:40.227Z,99.88
2023-05-10T21:55:11.451Z,100.00
2023-05-10T21:57:41.637Z,100.00
2023-05-10T22:00:16.572Z,100.00
2023-05-10T22:02:46.988Z,100.00
2023-05-10T22:05:16.970Z,100.00
2023-05-10T22:07:46.958Z,100.00
2023-05-10T22:10:17.120Z,100.00
2023-05-10T22:12:47.260Z,100.00
2023-05-10T22:15:20.092Z,100.00
2023-05-10T22:17:49.997Z,100.00
2023-05-10T22:20:21.240Z,100.00
2023-05-10T22:22:51.446Z,100.00
2023-05-10T22:25:21.454Z,100.00
2023-05-10T22:27:51.437Z,100.00
2023-05-10T22:30:24.236Z,100.00
2023-05-10T22:32:54.477Z,100.00
2023-05-10T22:35:25.118Z,100.00
2023-05-10T22:37:55.223Z,100.00
2023-05-10T22:40:25.130Z,100.00
2023-05-10T22:42:55.060Z,100.00
2023-05-10T22:45:28.310Z,100.00
2023-05-10T22:47:58.247Z,100.00
2023-05-10T22:50:29.534Z,100.00
2023-05-10T22:52:59.411Z,100.00
2023-05-10T22:55:29.723Z,100.00
2023-05-10T22:57:59.792Z,100.00
2023-05-10T23:00:32.314Z,100.00
2023-05-10T23:03:02.295Z,100.00
2023-05-10T23:05:32.309Z,100.00
2023-05-10T23:08:02.252Z,100.00
2023-05-10T23:10:32.447Z,100.00
2023-05-10T23:13:02.426Z,100.00
2023-05-10T23:15:36.440Z,100.00
2023-05-10T23:18:06.345Z,100.00
2023-05-10T23:20:36.353Z,100.00
2023-05-10T23:23:06.294Z,100.00
2023-05-10T23:25:36.241Z,100.00
2023-05-10T23:28:06.193Z,100.00
2023-05-10T23:30:38.784Z,100.00
2023-05-10T23:33:08.813Z,100.00
2023-05-10T23:35:38.756Z,100.00
2023-05-10T23:38:08.715Z,100.00
2023-05-10T23:40:38.779Z,100.00
2023-05-10T23:43:08.693Z,100.00
2023-05-10T23:45:41.437Z,100.00
2023-05-10T23:48:11.538Z,100.00
2023-05-10T23:50:41.574Z,100.00
2023-05-10T23:53:11.560Z,100.00
2023-05-10T23:55:41.604Z,100.00
2023-05-10T23:58:11.875Z,100.00
